createdAt,value
2022-09-24T00:02:25.737Z,100274.50
2022-09-24T00:07:28.285Z,100266.06
2022-09-24T00:12:30.729Z,100273.44
2022-09-24T00:17:34.592Z,100264.69
2022-09-24T00:22:37.034Z,100269.91
2022-09-24T00:27:39.726Z,100269.06
2022-09-24T00:32:44.232Z,100266.09
2022-09-24T00:37:46.679Z,100259.81
2022-09-24T00:42:49.134Z,100268.38
2022-09-24T00:47:54.673Z,100266.63
2022-09-24T00:53:00.265Z,100250.88
2022-09-24T00:58:06.443Z,100248.06
2022-09-24T01:03:15.286Z,100248.56
2022-09-24T01:08:19.967Z,100252.50
2022-09-24T01:13:43.426Z,100248.16
2022-09-24T01:18:55.298Z,100244.78
2022-09-24T01:24:15.246Z,100248.38
2022-09-24T01:29:43.505Z,100232.94
2022-09-24T01:34:50.656Z,100239.72
2022-09-24T01:39:56.621Z,100223.59
2022-09-24T01:45:02.036Z,100214.09
2022-09-24T01:50:05.876Z,100223.69
2022-09-24T01:55:14.939Z,100210.00
2022-09-24T02:00:22.260Z,100214.34
2022-09-24T02:05:42.165Z,100209.47
2022-09-24T02:10:51.875Z,100215.38
2022-09-24T02:16:00.734Z,100203.56
2022-09-24T02:21:07.747Z,100214.88
2022-09-24T02:26:10.713Z,100201.59
2022-09-24T02:31:19.034Z,100192.13
2022-09-24T02:36:25.034Z,100190.94
2022-09-24T02:41:29.090Z,100187.00
2022-09-24T02:46:33.188Z,100188.84
2022-09-24T02:51:35.819Z,100181.59
2022-09-24T02:56:38.589Z,100183.41
2022-09-24T03:01:42.751Z,100178.22
2022-09-24T03:06:45.351Z,100175.28
2022-09-24T03:11:48.418Z,100182.47
2022-09-24T03:16:52.412Z,100189.09
2022-09-24T03:21:54.846Z,100179.06
2022-09-24T03:26:57.613Z,100177.47
2022-09-24T03:32:02.010Z,100172.28
2022-09-24T03:37:04.699Z,100173.28
2022-09-24T03:42:07.254Z,100173.38
2022-09-24T03:47:11.042Z,100159.66
2022-09-24T03:52:13.974Z,100142.66
2022-09-24T03:57:16.582Z,100137.69
2022-09-24T04:02:20.655Z,100136.94
2022-09-24T04:07:23.353Z,100131.81
2022-09-24T04:12:25.782Z,100142.69
2022-09-24T04:17:31.283Z,100134.44
2022-09-24T04:22:33.827Z,100144.03
2022-09-24T04:27:36.651Z,100141.81
2022-09-24T04:32:40.525Z,100142.00
2022-09-24T04:37:43.215Z,100137.78
2022-09-24T04:42:46.321Z,100134.88
2022-09-24T04:47:52.726Z,100131.78
2022-09-24T04:52:55.973Z,100122.53
2022-09-24T04:57:59.759Z,100138.25
2022-09-24T05:03:04.898Z,100146.53
2022-09-24T05:08:07.403Z,100152.97
2022-09-24T05:13:10.353Z,100160.78
2022-09-24T05:18:14.198Z,100167.50
2022-09-24T05:23:16.711Z,100166.72
2022-09-24T05:28:19.427Z,100169.91
2022-09-24T05:33:23.326Z,100168.94
2022-09-24T05:38:25.853Z,100164.66
2022-09-24T05:43:28.682Z,100159.84
2022-09-24T05:48:32.533Z,100169.25
2022-09-24T05:53:35.537Z,100166.69
2022-09-24T05:58:38.110Z,100157.97
2022-09-24T06:03:41.949Z,100158.16
2022-09-24T06:08:44.615Z,100160.81
2022-09-24T06:13:47.477Z,100151.72
2022-09-24T06:18:51.378Z,100142.63
2022-09-24T06:23:53.865Z,100150.56
2022-09-24T06:28:59.541Z,100156.38
2022-09-24T06:34:06.018Z,100156.16
2022-09-24T06:39:09.361Z,100150.06
2022-09-24T06:44:11.961Z,100154.03
2022-09-24T06:49:15.937Z,100148.78
2022-09-24T06:54:18.437Z,100152.91
2022-09-24T06:59:20.916Z,100158.41
2022-09-24T07:04:24.809Z,100163.50
2022-09-24T07:09:27.329Z,100166.34
2022-09-24T07:14:29.756Z,100160.00
2022-09-24T07:19:33.568Z,100151.22
2022-09-24T07:24:36.040Z,100151.63
2022-09-24T07:29:39.240Z,100162.72
2022-09-24T07:34:43.204Z,100160.25
2022-09-24T07:39:46.172Z,100170.41
2022-09-24T07:44:48.657Z,100171.13
2022-09-24T07:49:52.459Z,100172.72
2022-09-24T07:54:55.435Z,100185.41
2022-09-24T07:59:58.149Z,100179.97
2022-09-24T08:05:02.494Z,100182.50
2022-09-24T08:10:05.657Z,100180.97
2022-09-24T08:15:08.693Z,100179.06
2022-09-24T08:20:12.906Z,100180.72
2022-09-24T08:25:15.632Z,100184.50
2022-09-24T08:30:18.329Z,100188.81
2022-09-24T08:35:25.611Z,100177.81
2022-09-24T08:40:31.304Z,100180.06
2022-09-24T08:45:59.824Z,100173.97
2022-09-24T08:51:07.660Z,100174.28
2022-09-24T08:56:12.250Z,100170.13
2022-09-24T09:01:26.084Z,100167.19
2022-09-24T09:07:10.890Z,100160.78
2022-09-24T09:12:18.749Z,100165.38
2022-09-24T09:17:30.604Z,100171.97
2022-09-24T09:22:38.697Z,100166.06
2022-09-24T09:27:42.462Z,100160.56
2022-09-24T09:33:01.634Z,100160.28
2022-09-24T09:38:11.009Z,100155.91
2022-09-24T09:43:16.844Z,100160.00
2022-09-24T09:48:23.548Z,100159.38
2022-09-24T09:53:28.190Z,100155.13
2022-09-24T09:58:35.058Z,100149.97
2022-09-24T10:03:49.723Z,100152.91
2022-09-24T10:08:52.220Z,100161.69
2022-09-24T10:14:04.731Z,100148.00
2022-09-24T10:19:17.166Z,100151.31
2022-09-24T10:24:22.305Z,100145.44
2022-09-24T10:29:49.362Z,100152.00
2022-09-24T10:34:59.375Z,100143.78
2022-09-24T10:40:04.042Z,100138.97
2022-09-24T10:45:14.925Z,100145.25
2022-09-24T10:50:36.621Z,100146.34
2022-09-24T10:55:49.677Z,100155.69
2022-09-24T11:01:05.429Z,100147.94
2022-09-24T11:06:19.097Z,100135.41
2022-09-24T11:11:35.573Z,100134.22
2022-09-24T11:16:56.449Z,100127.03
2022-09-24T11:22:09.638Z,100130.16
2022-09-24T11:27:32.918Z,100120.28
2022-09-24T11:32:46.911Z,100113.06
2022-09-24T11:38:00.361Z,100103.16
2022-09-24T11:43:21.751Z,100103.88
2022-09-24T11:48:40.359Z,100115.22
2022-09-24T11:53:49.408Z,100103.88
2022-09-24T11:59:00.189Z,100104.78
2022-09-24T12:04:11.724Z,100104.50
2022-09-24T12:09:20.725Z,100097.47
2022-09-24T12:14:28.244Z,100101.03
2022-09-24T12:19:37.220Z,100089.66
2022-09-24T12:24:46.021Z,100076.19
2022-09-24T12:30:14.693Z,100079.00
2022-09-24T12:35:47.366Z,100076.69
2022-09-24T12:41:20.763Z,100066.25
2022-09-24T12:46:25.270Z,100065.69
2022-09-24T12:51:37.637Z,100075.34
2022-09-24T12:56:41.007Z,100058.94
2022-09-24T13:01:43.560Z,100055.69
2022-09-24T13:06:49.957Z,100056.97
2022-09-24T13:12:02.766Z,100069.91
2022-09-24T13:17:07.831Z,100052.91
2022-09-24T13:22:25.149Z,100052.06
2022-09-24T13:27:38.075Z,100052.34
2022-09-24T13:32:47.596Z,100051.13
2022-09-24T13:37:56.928Z,100049.69
2022-09-24T13:43:15.830Z,100047.19
2022-09-24T13:48:30.437Z,100049.38
2022-09-24T13:53:40.989Z,100044.81
2022-09-24T13:58:43.934Z,100050.63
2022-09-24T14:03:54.420Z,100041.13
2022-09-24T14:08:58.457Z,100046.22
2022-09-24T14:14:11.945Z,100040.56
2022-09-24T14:19:16.718Z,100042.22
2022-09-24T14:24:24.950Z,100046.69
2022-09-24T14:29:35.699Z,100045.84
2022-09-24T14:34:42.390Z,100039.81
2022-09-24T14:39:49.232Z,100040.66
2022-09-24T14:44:52.521Z,100038.25
2022-09-24T14:49:55.664Z,100030.59
2022-09-24T14:55:12.945Z,100033.13
2022-09-24T15:00:23.852Z,100033.22
2022-09-24T15:05:28.999Z,100033.81
2022-09-24T15:10:32.922Z,100034.00
2022-09-24T15:15:36.138Z,100040.03
2022-09-24T15:20:38.782Z,100039.38
2022-09-24T15:25:43.594Z,100039.94
2022-09-24T15:30:46.216Z,100040.28
2022-09-24T15:35:48.880Z,100044.91
2022-09-24T15:40:53.983Z,100035.88
2022-09-24T15:45:56.521Z,100036.91
2022-09-24T15:50:59.205Z,100039.19
2022-09-24T15:56:04.754Z,100037.59
2022-09-24T16:01:07.807Z,100039.63
2022-09-24T16:06:12.090Z,100037.91
2022-09-24T16:11:16.558Z,100039.78
2022-09-24T16:16:19.142Z,100041.38
2022-09-24T16:21:22.088Z,100035.75
2022-09-24T16:26:25.931Z,100038.34
2022-09-24T16:31:28.806Z,100044.16
2022-09-24T16:36:31.267Z,100043.78
2022-09-24T16:41:36.998Z,100048.00
2022-09-24T16:46:39.515Z,100051.34
2022-09-24T16:51:42.425Z,100054.38
2022-09-24T16:56:46.388Z,100052.28
2022-09-24T17:01:48.831Z,100047.75
2022-09-24T17:06:54.172Z,100055.56
2022-09-24T17:11:58.326Z,100051.47
2022-09-24T17:17:00.686Z,100055.81
2022-09-24T17:22:03.180Z,100058.84
2022-09-24T17:27:07.652Z,100052.09
2022-09-24T17:32:10.204Z,100060.41
2022-09-24T17:37:12.773Z,100070.28
2022-09-24T17:42:16.731Z,100072.38
2022-09-24T17:47:19.220Z,100065.56
2022-09-24T17:52:21.710Z,100077.88
2022-09-24T17:57:27.313Z,100078.84
2022-09-24T18:02:29.848Z,100086.38
2022-09-24T18:07:32.402Z,100093.63
2022-09-24T18:12:36.223Z,100089.69
2022-09-24T18:17:39.101Z,100098.44
2022-09-24T18:22:41.635Z,100092.31
2022-09-24T18:27:46.469Z,100095.81
2022-09-24T18:32:48.940Z,100103.66
2022-09-24T18:37:51.403Z,100101.56
2022-09-24T18:42:55.217Z,100104.00
2022-09-24T18:47:57.670Z,100111.81
2022-09-24T18:53:03.345Z,100099.22
2022-09-24T18:58:20.679Z,100105.38
2022-09-24T19:03:23.534Z,100099.19
2022-09-24T19:08:26.104Z,100095.06
2022-09-24T19:13:31.637Z,100103.34
2022-09-24T19:18:37.811Z,100105.19
2022-09-24T19:23:41.184Z,100121.41
2022-09-24T19:28:45.925Z,100124.38
2022-09-24T19:33:48.975Z,100114.69
2022-09-24T19:38:53.103Z,100118.03
2022-09-24T19:44:03.251Z,100117.72
2022-09-24T19:49:08.702Z,100120.56
2022-09-24T19:54:11.465Z,100124.91
2022-09-24T19:59:17.453Z,100118.66
2022-09-24T20:04:20.395Z,100129.00
2022-09-24T20:09:22.906Z,100125.31
2022-09-24T20:14:30.243Z,100123.53
2022-09-24T20:19:39.146Z,100126.84
2022-09-24T20:24:41.655Z,100135.25
2022-09-24T20:29:48.266Z,100130.84
2022-09-24T20:34:50.832Z,100132.38
2022-09-24T20:39:53.297Z,100123.44
2022-09-24T20:45:05.232Z,100129.16
2022-09-24T20:50:10.822Z,100131.38
2022-09-24T20:55:15.182Z,100127.97
2022-09-24T21:00:19.366Z,100135.34
2022-09-24T21:05:21.816Z,100129.84
2022-09-24T21:10:24.603Z,100137.81
2022-09-24T21:15:28.448Z,100135.94
2022-09-24T21:20:30.939Z,100144.06
2022-09-24T21:25:53.324Z,100146.97
2022-09-24T21:31:03.320Z,100147.47
2022-09-24T21:36:07.999Z,100145.19
2022-09-24T21:41:10.396Z,100147.66
2022-09-24T21:46:14.777Z,100143.31
2022-09-24T21:51:21.516Z,100146.13
2022-09-24T21:56:25.200Z,100144.56
2022-09-24T22:01:31.436Z,100148.09
2022-09-24T22:06:35.021Z,100148.31
2022-09-24T22:11:38.217Z,100148.44
2022-09-24T22:16:42.329Z,100150.97
2022-09-24T22:21:45.306Z,100153.31
2022-09-24T22:26:48.016Z,100149.28
2022-09-24T22:31:52.029Z,100147.16
2022-09-24T22:36:54.694Z,100153.63
2022-09-24T22:41:57.345Z,100151.13
2022-09-24T22:47:01.094Z,100146.72
2022-09-24T22:52:03.693Z,100151.13
2022-09-24T22:57:06.202Z,100157.00
2022-09-24T23:02:13.181Z,100159.50
2022-09-24T23:07:16.435Z,100152.44
2022-09-24T23:12:19.098Z,100157.78
2022-09-24T23:17:23.027Z,100147.53
2022-09-24T23:22:25.539Z,100144.28
2022-09-24T23:27:28.469Z,100138.13
2022-09-24T23:32:32.327Z,100139.00
2022-09-24T23:37:34.854Z,100131.63
2022-09-24T23:42:37.324Z,100142.03
2022-09-24T23:47:41.305Z,100134.97
2022-09-24T23:52:43.762Z,100135.53
2022-09-24T23:57:46.421Z,100139.75
